Burgos, Spain

12:42 AM CET en Noviembre 23, 2017 (GMT +0100)
Avd. Cid Campeador,nº6 | | Change Station

Alt 2805 ft 42.42 °N, 3.68 °W | Updated 12 minutes ago

Despejado
Despejado
52.9 ° F
Sensación térmica 52.9 ° F
N
14.0
Viento Variable Viento desde Sur
Gusts 24.0 mph

Hoy
Alta -- | Baja -- ° F
--% Posibilidad de precipitaciones
Ayer
Alta -- | Baja -- ° F
Precip. -- pul
Presión 29.89 pul
Visibilidad -9999.0 Millas
Nubes
Punto de rocío 29 ° F
Humedad 40%
Precipitaciones 0.00 pul
Espesor de la nieve No disponible.
8:16 AM 5:46 PM
Creciente, 17% visible
METAR LEBG 222300Z AUTO 19016KT CAVOK 12/M03 Q1012
Presión 29.89 pul
Visibilidad -9999.0 Millas
Nubes
Punto de rocío 29 ° F
Humedad 40%
Precipitaciones 0.00 pul
Espesor de la nieve No disponible.
8:16 AM 5:46 PM
Creciente, 17% visible
METAR LEBG 222300Z AUTO 19016KT CAVOK 12/M03 Q1012

Get Severe Weather Alerts

Thanks for signing up!

Be on the lookout for a verification email in your inbox.

You'll start receiving the daily forecast at 6 AM.

×

10-Day Weather Forecast

×

Almanac

Astronomía

Nov. 23, 2017 Salida Puesta
Hora real
Crepúsculo civil
Crepúsculo náutico
Crepúsculo astronómico
Luna
Horas de luz
Horas de luz
Tomorrow will be .
, % of the Moon is Illuminated

Extremos de hoy

Máximos del país Bajas del país

Community

WunderPhotos

Category 6

Welcome to Category 6. This is the collective home for Weather Underground's featured writeups by Dr. Jeff Masters (right), Bob Henson (left), Chris Burt, and other regular contributors.

Nearby

Calidad del aire

  Calidad del aire Índice AQ Contaminante
Not available.

Grosos de nieve

Estación Profundido Altura

Actividad de terremotos

Ciudad Distance Mag. Tiempo y dato
Magnitud mínima muestra es 2,5.

Temperaturas de aguas costeras

Lugar Temperatura

Stations

Estaciones meteorológicas cercanas

Ubicación de la estación Temp. Vientos helados Punto de rocío Humedad Viento Precip. Alt Actualizado Tipo